createdAt,value
2023-12-11T00:01:44.978Z,77.18
2023-12-11T00:04:13.736Z,77.59
2023-12-11T00:06:40.713Z,77.54
2023-12-11T00:09:17.352Z,77.42
2023-12-11T00:11:44.117Z,77.57
2023-12-11T00:14:11.957Z,77.31
2023-12-11T00:16:38.821Z,77.46
2023-12-11T00:19:05.634Z,77.14
2023-12-11T00:21:32.418Z,77.01
2023-12-11T00:24:00.269Z,76.84
2023-12-11T00:26:27.737Z,76.81
2023-12-11T00:28:55.573Z,76.95
2023-12-11T00:31:27.050Z,77.05
2023-12-11T00:33:54.058Z,77.37
2023-12-11T00:36:20.984Z,77.53
2023-12-11T00:38:52.124Z,77.34
2023-12-11T00:41:53.553Z,77.50
2023-12-11T00:47:09.256Z,77.58
2023-12-11T00:49:41.458Z,77.71
2023-12-11T00:52:10.468Z,77.93
2023-12-11T00:54:40.484Z,77.92
2023-12-11T00:57:08.682Z,78.12
2023-12-11T00:59:39.039Z,78.04
2023-12-11T01:02:06.454Z,77.94
2023-12-11T01:04:43.108Z,78.19
2023-12-11T01:07:10.503Z,78.52
2023-12-11T01:09:37.540Z,78.20
2023-12-11T01:12:04.932Z,78.26
2023-12-11T01:14:33.431Z,78.60
2023-12-11T01:17:00.292Z,78.37
2023-12-11T01:19:48.204Z,78.11
2023-12-11T01:22:15.072Z,78.40
2023-12-11T01:24:42.368Z,78.26
2023-12-11T01:27:09.126Z,78.40
2023-12-11T01:29:37.124Z,78.17
2023-12-11T01:32:05.547Z,78.46
2023-12-11T01:34:36.536Z,78.23
2023-12-11T01:37:03.854Z,77.87
2023-12-11T01:39:34.159Z,78.13
2023-12-11T01:42:01.146Z,78.00
2023-12-11T01:44:29.062Z,77.57
2023-12-11T01:46:55.924Z,77.80
2023-12-11T01:49:24.494Z,77.87
2023-12-11T01:51:52.405Z,77.96
2023-12-11T01:54:20.810Z,78.05
2023-12-11T01:56:47.839Z,78.16
2023-12-11T01:59:15.390Z,78.02
2023-12-11T02:01:43.491Z,77.78
2023-12-11T02:04:10.427Z,77.92
2023-12-11T02:06:37.272Z,77.98
2023-12-11T02:09:03.796Z,78.19
2023-12-11T02:11:49.169Z,77.98
2023-12-11T02:14:16.709Z,78.11
2023-12-11T02:16:44.135Z,78.10
2023-12-11T02:21:52.515Z,78.24
2023-12-11T02:24:26.601Z,78.19
2023-12-11T02:26:53.913Z,78.14
2023-12-11T02:29:34.221Z,78.01
2023-12-11T02:32:01.559Z,78.22
2023-12-11T02:34:30.283Z,78.30
2023-12-11T02:37:01.722Z,78.26
2023-12-11T02:39:30.070Z,77.92
2023-12-11T02:41:57.156Z,77.60
2023-12-11T02:44:24.230Z,77.85
2023-12-11T02:46:52.853Z,77.38
2023-12-11T02:49:22.234Z,77.17
2023-12-11T02:51:51.677Z,77.27
2023-12-11T02:54:21.548Z,77.44
2023-12-11T02:56:49.822Z,77.41
2023-12-11T02:59:16.439Z,77.21
2023-12-11T03:01:46.096Z,77.17
2023-12-11T03:04:13.530Z,76.98
2023-12-11T03:06:41.645Z,76.09
2023-12-11T03:09:11.123Z,76.20
2023-12-11T03:11:37.929Z,76.39
2023-12-11T03:14:04.650Z,76.15
2023-12-11T03:16:31.491Z,75.48
2023-12-11T03:18:58.412Z,74.97
2023-12-11T03:21:25.163Z,75.83
2023-12-11T03:23:52.925Z,75.92
2023-12-11T03:26:20.666Z,75.87
2023-12-11T03:28:47.637Z,76.14
2023-12-11T03:31:14.721Z,75.26
2023-12-11T03:33:44.539Z,75.15
2023-12-11T03:36:11.289Z,75.19
2023-12-11T03:38:37.860Z,75.26
2023-12-11T03:41:05.084Z,75.44
2023-12-11T03:43:32.105Z,75.41
2023-12-11T03:45:59.086Z,75.50
2023-12-11T03:48:25.911Z,75.60
2023-12-11T03:50:55.548Z,75.82
2023-12-11T03:53:22.654Z,75.71
2023-12-11T03:55:50.459Z,75.71
2023-12-11T03:58:17.318Z,75.37
2023-12-11T04:00:44.253Z,75.70
2023-12-11T04:03:14.596Z,75.97
2023-12-11T04:05:41.573Z,76.10
2023-12-11T04:08:08.506Z,76.09
2023-12-11T04:10:35.515Z,76.33
2023-12-11T04:13:04.175Z,76.38
2023-12-11T04:15:31.278Z,76.56
2023-12-11T04:21:13.837Z,76.06
2023-12-11T04:23:48.185Z,75.93
2023-12-11T04:26:34.624Z,75.97
2023-12-11T04:29:06.064Z,76.04
2023-12-11T04:31:33.326Z,76.11
2023-12-11T04:34:00.373Z,75.79
2023-12-11T04:36:27.863Z,75.20
2023-12-11T04:38:54.901Z,75.54
2023-12-11T04:41:22.040Z,75.50
2023-12-11T04:43:50.212Z,75.52
2023-12-11T04:46:20.303Z,75.19
2023-12-11T04:48:47.326Z,75.46
2023-12-11T04:51:14.610Z,75.17
2023-12-11T04:53:41.434Z,75.32
2023-12-11T04:56:08.556Z,75.39
2023-12-11T04:58:39.139Z,75.50
2023-12-11T05:01:06.413Z,74.52
2023-12-11T05:03:40.387Z,74.49
2023-12-11T05:06:07.822Z,74.58
2023-12-11T05:08:40.984Z,74.89
2023-12-11T05:11:08.087Z,74.90
2023-12-11T05:13:35.231Z,74.70
2023-12-11T05:16:02.732Z,74.36
2023-12-11T05:18:32.799Z,74.07
2023-12-11T05:21:00.094Z,73.90
2023-12-11T05:23:27.480Z,73.89
2023-12-11T05:25:58.153Z,73.61
2023-12-11T05:28:25.058Z,73.95
2023-12-11T05:30:52.198Z,73.76
2023-12-11T05:33:20.930Z,73.37
2023-12-11T05:35:49.101Z,73.04
2023-12-11T05:38:17.080Z,73.86
2023-12-11T05:40:51.581Z,73.96
2023-12-11T05:43:19.563Z,73.35
2023-12-11T05:45:47.230Z,73.53
2023-12-11T05:48:14.081Z,73.40
2023-12-11T05:50:41.522Z,73.09
2023-12-11T05:53:08.835Z,73.10
2023-12-11T05:55:35.472Z,73.33
2023-12-11T05:58:02.087Z,72.95
2023-12-11T06:00:29.043Z,72.92
2023-12-11T06:02:56.014Z,72.82
2023-12-11T06:05:22.902Z,73.28
2023-12-11T06:07:49.932Z,73.48
2023-12-11T06:10:23.523Z,73.77
2023-12-11T06:12:53.351Z,73.72
2023-12-11T06:15:20.289Z,73.77
2023-12-11T06:17:49.385Z,74.12
2023-12-11T06:20:37.160Z,73.82
2023-12-11T06:23:25.275Z,74.99
2023-12-11T06:25:59.814Z,76.15
2023-12-11T06:28:28.137Z,76.86
2023-12-11T06:30:58.559Z,77.44
2023-12-11T06:33:30.280Z,77.60
2023-12-11T06:35:58.579Z,78.46
2023-12-11T06:38:26.289Z,78.30
2023-12-11T06:40:59.717Z,78.38
2023-12-11T06:43:30.154Z,78.14
2023-12-11T06:45:58.611Z,78.15
2023-12-11T06:48:29.199Z,78.25
2023-12-11T06:50:56.619Z,78.13
2023-12-11T06:53:23.897Z,78.27
2023-12-11T06:55:51.622Z,78.34
2023-12-11T06:58:32.344Z,78.41
2023-12-11T07:01:01.739Z,78.51
2023-12-11T07:03:32.160Z,78.32
2023-12-11T07:05:59.327Z,78.38
2023-12-11T07:11:07.848Z,78.18
2023-12-11T07:13:35.332Z,78.17
2023-12-11T07:16:03.802Z,78.14
2023-12-11T07:18:31.062Z,78.43
2023-12-11T07:21:00.729Z,78.24
2023-12-11T07:23:27.551Z,78.30
2023-12-11T07:25:54.743Z,78.50
2023-12-11T07:28:22.041Z,78.43
2023-12-11T07:30:49.106Z,78.72
2023-12-11T07:33:19.461Z,78.95
2023-12-11T07:35:46.204Z,79.13
2023-12-11T07:38:15.850Z,79.53
2023-12-11T07:43:47.665Z,79.84
2023-12-11T07:49:25.822Z,79.75
2023-12-11T07:51:59.374Z,79.61
2023-12-11T07:54:26.408Z,79.49
2023-12-11T07:57:01.991Z,79.35
2023-12-11T07:59:35.972Z,79.46
2023-12-11T08:04:47.508Z,79.11
2023-12-11T08:07:17.882Z,78.63
2023-12-11T08:09:45.931Z,77.93
2023-12-11T08:12:12.727Z,77.70
2023-12-11T08:14:39.986Z,77.07
2023-12-11T08:17:14.610Z,76.96
2023-12-11T08:19:41.430Z,76.93
2023-12-11T08:22:12.191Z,76.45
2023-12-11T08:24:39.776Z,75.96
2023-12-11T08:27:10.339Z,75.64
2023-12-11T08:29:43.331Z,75.23
2023-12-11T08:32:11.086Z,74.35
2023-12-11T08:34:38.742Z,74.57
2023-12-11T08:37:16.764Z,73.99
2023-12-11T08:39:47.267Z,73.89
2023-12-11T08:42:14.328Z,74.37
2023-12-11T08:44:42.845Z,73.87
2023-12-11T08:47:17.253Z,73.71
2023-12-11T08:49:45.373Z,73.12
2023-12-11T08:52:12.520Z,73.21
2023-12-11T08:54:40.073Z,72.78
2023-12-11T08:57:09.650Z,72.69
2023-12-11T08:59:37.733Z,72.43
2023-12-11T09:02:17.521Z,72.07
2023-12-11T09:07:33.074Z,71.66
2023-12-11T09:10:12.098Z,70.95
2023-12-11T09:12:42.863Z,71.17
2023-12-11T09:15:11.732Z,70.43
2023-12-11T09:20:43.818Z,70.95
2023-12-11T09:23:40.372Z,70.88
2023-12-11T09:26:16.767Z,70.48
2023-12-11T09:31:40.169Z,70.98
2023-12-11T09:34:19.097Z,70.92
2023-12-11T09:37:00.579Z,70.93
2023-12-11T09:42:23.013Z,70.17
2023-12-11T09:44:54.508Z,69.94
2023-12-11T09:47:27.755Z,69.55
2023-12-11T09:50:10.246Z,69.11
2023-12-11T09:52:54.492Z,69.04
2023-12-11T09:55:22.980Z,68.81
2023-12-11T09:57:51.208Z,68.58
2023-12-11T10:00:19.870Z,68.52
2023-12-11T10:02:57.588Z,69.05
2023-12-11T10:05:28.171Z,68.79
2023-12-11T10:07:59.154Z,69.42
2023-12-11T10:10:35.516Z,69.46
2023-12-11T10:13:17.753Z,69.34
2023-12-11T10:19:03.510Z,69.06
2023-12-11T10:21:50.515Z,69.26
2023-12-11T10:27:06.265Z,69.02
2023-12-11T10:29:40.565Z,69.28
2023-12-11T10:32:12.749Z,69.13
2023-12-11T10:35:01.499Z,69.43
2023-12-11T10:38:04.230Z,69.63
2023-12-11T10:40:46.913Z,70.09
2023-12-11T10:43:15.797Z,70.11
2023-12-11T10:45:51.377Z,70.38
2023-12-11T10:54:04.033Z,71.03
2023-12-11T10:56:40.403Z,70.90
2023-12-11T10:59:24.081Z,71.15
2023-12-11T11:04:48.777Z,70.81
2023-12-11T11:07:37.793Z,70.79
2023-12-11T11:10:22.459Z,70.64
2023-12-11T11:13:02.096Z,70.25
2023-12-11T11:18:15.642Z,70.56
2023-12-11T11:20:47.684Z,69.90
2023-12-11T11:23:24.427Z,70.13
2023-12-11T11:25:57.455Z,69.50
2023-12-11T11:28:55.272Z,69.72
2023-12-11T11:31:57.215Z,68.95
2023-12-11T11:34:47.160Z,69.09
2023-12-11T11:37:47.258Z,69.48
2023-12-11T11:40:17.255Z,69.15
2023-12-11T11:42:45.977Z,69.56
2023-12-11T11:45:13.103Z,69.25
2023-12-11T11:47:45.574Z,69.15
2023-12-11T11:50:14.654Z,69.14
2023-12-11T11:52:44.632Z,69.15
2023-12-11T11:55:18.328Z,69.36
2023-12-11T11:57:45.942Z,69.22
2023-12-11T12:00:14.456Z,69.61
2023-12-11T12:02:41.939Z,69.23
2023-12-11T12:08:18.508Z,69.82
2023-12-11T12:10:45.982Z,69.85
2023-12-11T12:13:17.016Z,69.90
2023-12-11T12:15:55.254Z,69.84
2023-12-11T12:18:26.400Z,70.26
2023-12-11T12:21:04.364Z,70.44
2023-12-11T12:23:31.515Z,70.37
2023-12-11T12:28:56.951Z,69.87
2023-12-11T12:34:18.310Z,69.81
2023-12-11T12:36:46.546Z,69.96
2023-12-11T12:39:15.704Z,70.30
2023-12-11T12:41:42.967Z,70.18
2023-12-11T12:44:09.886Z,70.23
2023-12-11T12:46:43.797Z,70.24
2023-12-11T12:49:12.229Z,70.25
2023-12-11T12:52:42.561Z,70.60
2023-12-11T12:55:12.826Z,70.41
2023-12-11T12:57:48.851Z,70.04
2023-12-11T13:00:23.815Z,70.44
2023-12-11T13:03:02.107Z,70.40
2023-12-11T13:06:13.627Z,70.29
2023-12-11T13:09:00.324Z,70.32
2023-12-11T13:11:58.534Z,70.70
2023-12-11T13:14:32.399Z,70.61
2023-12-11T13:17:01.043Z,70.22
2023-12-11T13:19:31.840Z,70.64
2023-12-11T13:22:01.156Z,70.74
2023-12-11T13:24:35.627Z,70.37
2023-12-11T13:27:05.764Z,70.36
2023-12-11T13:29:35.654Z,70.71
2023-12-11T13:32:08.988Z,71.59
2023-12-11T13:34:52.413Z,71.22
2023-12-11T15:41:55.887Z,84.45
2023-12-11T15:44:22.500Z,85.71
2023-12-11T15:46:49.149Z,85.45
2023-12-11T15:49:15.999Z,85.07
2023-12-11T15:51:43.070Z,85.46
2023-12-11T15:54:10.246Z,85.92
2023-12-11T15:56:37.031Z,84.92
2023-12-11T15:59:04.969Z,85.22
2023-12-11T16:01:31.910Z,84.95
2023-12-11T16:03:58.987Z,84.54
2023-12-11T16:06:30.003Z,84.40
2023-12-11T16:08:56.706Z,84.73
2023-12-11T16:11:23.507Z,84.59
2023-12-11T16:13:50.058Z,84.55
2023-12-11T16:16:19.364Z,84.63
2023-12-11T16:18:48.400Z,84.47
2023-12-11T16:21:15.307Z,84.67
2023-12-11T16:23:42.124Z,84.50
2023-12-11T16:26:14.915Z,85.03
2023-12-11T16:39:39.868Z,84.76
2023-12-11T17:32:00.532Z,84.89
2023-12-11T18:21:35.102Z,82.95
2023-12-11T18:27:12.720Z,82.68
2023-12-11T18:29:44.176Z,82.40
2023-12-11T18:32:16.298Z,82.76
2023-12-11T18:34:58.626Z,82.67
2023-12-11T18:37:31.291Z,82.29
2023-12-11T18:39:58.899Z,82.29
2023-12-11T18:48:22.900Z,82.24
2023-12-11T18:56:46.338Z,81.43
2023-12-11T18:59:16.184Z,81.71
2023-12-11T19:01:44.817Z,81.62
2023-12-11T19:04:12.951Z,81.29
2023-12-11T19:06:39.929Z,80.15
2023-12-11T19:09:08.956Z,80.52
2023-12-11T19:11:36.310Z,80.49
2023-12-11T19:14:03.214Z,80.65
2023-12-11T19:16:29.931Z,80.56
2023-12-11T19:18:58.308Z,80.31
2023-12-11T19:21:25.108Z,80.37
2023-12-11T19:23:53.136Z,80.29
2023-12-11T19:26:20.826Z,80.38
2023-12-11T19:28:47.832Z,80.22
2023-12-11T19:31:16.594Z,80.11
2023-12-11T19:33:44.604Z,80.33
2023-12-11T19:36:11.608Z,80.46
2023-12-11T19:38:38.698Z,80.31
2023-12-11T19:41:12.458Z,80.03
2023-12-11T19:43:40.397Z,80.31
2023-12-11T19:46:08.678Z,80.79
2023-12-11T19:48:39.827Z,80.48
2023-12-11T19:51:13.535Z,80.46
2023-12-11T19:56:24.287Z,80.57
2023-12-11T19:58:57.520Z,80.52
2023-12-11T20:04:22.033Z,80.58
2023-12-11T20:06:51.341Z,80.45
2023-12-11T20:09:18.416Z,80.84
2023-12-11T20:14:30.840Z,81.08
2023-12-11T20:17:12.403Z,80.93
2023-12-11T20:25:04.578Z,80.86
2023-12-11T20:30:22.689Z,80.65
2023-12-11T20:41:28.735Z,80.92
2023-12-11T20:52:12.191Z,80.15
2023-12-11T20:54:50.934Z,80.22
2023-12-11T21:00:05.627Z,79.90
2023-12-11T21:02:45.058Z,79.72
2023-12-11T21:05:14.159Z,79.33
2023-12-11T21:07:46.718Z,79.15
2023-12-11T21:10:13.641Z,78.94
2023-12-11T21:15:31.517Z,78.89
2023-12-11T21:18:03.040Z,79.23
2023-12-11T21:20:44.376Z,79.27
2023-12-11T21:23:13.387Z,79.38
2023-12-11T21:25:41.829Z,79.54
2023-12-11T21:28:12.266Z,79.89
2023-12-11T21:30:39.342Z,79.92
2023-12-11T21:33:10.588Z,79.74
2023-12-11T21:35:38.511Z,80.02
2023-12-11T21:38:15.737Z,80.11
2023-12-11T21:40:45.320Z,80.04
2023-12-11T21:48:45.729Z,79.80
2023-12-11T21:51:21.900Z,80.00
2023-12-11T21:53:57.541Z,80.22
2023-12-11T21:56:28.880Z,80.23
2023-12-11T21:59:03.384Z,80.21
2023-12-11T22:04:22.749Z,80.14
2023-12-11T22:07:00.754Z,80.13
2023-12-11T22:09:30.163Z,80.29
2023-12-11T22:12:02.287Z,80.51
2023-12-11T22:17:24.177Z,80.20
2023-12-11T22:22:49.708Z,80.33
2023-12-11T22:25:34.896Z,80.22
2023-12-11T22:30:52.751Z,80.48
2023-12-11T22:36:07.961Z,80.52
2023-12-11T22:41:37.082Z,80.66
2023-12-11T22:47:06.360Z,80.72
2023-12-11T22:49:42.701Z,80.47
2023-12-11T22:55:05.274Z,80.59
2023-12-11T22:57:43.221Z,80.47
2023-12-11T23:03:25.959Z,80.71
2023-12-11T23:11:27.054Z,80.48
2023-12-11T23:14:03.860Z,80.52
2023-12-11T23:22:02.496Z,80.83
2023-12-11T23:24:30.815Z,81.14
2023-12-11T23:27:09.871Z,81.03
2023-12-11T23:32:25.546Z,80.86
2023-12-11T23:43:31.681Z,81.33
2023-12-11T23:48:44.958Z,81.19
2023-12-11T23:51:18.735Z,81.51
2023-12-11T23:54:02.862Z,81.75
2023-12-11T23:56:51.579Z,81.93
